DXB weather

Dubai International Airport
Dubai, Dubai Emirate, United Arab Emirates

Public forecast

Using degrees Celsius for public forecast. Weather courtesy of forecast.io.

METAR (pilot weather report)

Retrieved 2017/05/25 00:00 UTC (60 minutes ago):

OMDB 250000Z 36006KT 300V080 CAVOK 30/25 Q1005 NOSIG

TAF (pilot weather forecast)

Forecast is more than 12 hours old.

Retrieved 2017/05/24 00:00 UTC (1 day ago):

TAF OMDB 242256Z 2500/2606 15005KT CAVOK BECMG 2507/2509 27015KT BECMG 2515/2517 20007KT